Time;durP1;ratioP1;P1;durP2;ratioP2;P2;SDS_P1;SDS_P2;PMS_P1;PMS_P2;Temp;Humidity;BMP_temperature;BMP_pressure;BME280_temperature;BME280_humidity;BME280_pressure;Samples;Min_cycle;Max_cycle;Signal;HPM_P1;HPM_P2
2021/09/27 00:01:15;;;;;;;16.48;10.20;;;;;;;16.10;86.11;101448.31;5037143;28;20025;-42
2021/09/27 00:03:41;;;;;;;17.25;10.48;;;;;;;16.11;85.88;101444.72;5036987;28;20075;-43
2021/09/27 00:06:08;;;;;;;14.38;10.40;;;;;;;16.11;85.98;101439.50;5036617;28;20361;-43
2021/09/27 00:08:33;;;;;;;17.50;11.27;;;;;;;16.15;85.87;101434.66;5036499;28;20079;-42
2021/09/27 00:11:13;;;;;;;17.30;10.93;;;;;;;16.19;85.32;101434.03;5036695;28;20385;-43
2021/09/27 00:13:41;;;;;;;20.35;10.27;;;;;;;16.19;85.56;101430.63;5036761;28;20096;-42
2021/09/27 00:16:08;;;;;;;15.30;9.93;;;;;;;16.21;85.27;101433.81;5035372;28;20591;-43
2021/09/27 00:18:34;;;;;;;17.60;10.57;;;;;;;16.23;85.56;101431.81;5036540;28;20036;-43
2021/09/27 00:21:02;;;;;;;15.05;10.18;;;;;;;16.22;85.36;101430.19;5036556;28;20108;-43
2021/09/27 00:23:30;;;;;;;17.25;11.10;;;;;;;16.18;85.45;101434.25;5036522;28;20036;-43
2021/09/27 00:25:55;;;;;;;17.88;10.95;;;;;;;16.16;85.63;101433.66;5036377;28;20018;-43
2021/09/27 00:28:21;;;;;;;15.02;11.10;;;;;;;16.16;85.56;101433.66;5036381;28;20077;-43
2021/09/27 00:30:48;;;;;;;17.60;10.75;;;;;;;16.18;85.49;101434.25;5036422;28;20523;-43
2021/09/27 00:33:14;;;;;;;18.42;11.30;;;;;;;16.14;85.83;101430.44;5036276;28;20063;-43
2021/09/27 00:35:40;;;;;;;16.63;11.13;;;;;;;16.18;85.74;101426.41;5034810;28;20033;-43
2021/09/27 00:38:07;;;;;;;14.93;10.90;;;;;;;16.10;86.16;101422.25;5036490;28;20039;-43
2021/09/27 00:40:36;;;;;;;18.98;11.18;;;;;;;16.10;86.07;101424.84;5036418;28;20017;-43
2021/09/27 00:43:03;;;;;;;18.88;10.98;;;;;;;16.13;85.87;101416.59;5036167;28;20357;-43
2021/09/27 00:45:32;;;;;;;20.35;11.55;;;;;;;16.15;85.62;101414.59;5035993;28;20029;-43
2021/09/27 00:47:58;;;;;;;23.63;11.45;;;;;;;16.11;85.85;101410.81;5036093;28;20108;-43
2021/09/27 00:50:26;;;;;;;19.52;11.40;;;;;;;16.06;86.20;101400.22;5018205;28;20052;-44
2021/09/27 00:52:52;;;;;;;22.38;11.32;;;;;;;16.10;85.88;101401.38;5035992;28;20025;-44
2021/09/27 00:55:21;;;;;;;17.88;11.52;;;;;;;16.06;86.05;101400.22;5034554;28;20183;-44
2021/09/27 00:57:46;;;;;;;17.13;11.50;;;;;;;16.05;86.22;101403.00;5035920;28;20025;-43
2021/09/27 01:00:17;;;;;;;18.17;11.48;;;;;;;16.08;85.97;101402.59;5035867;28;20029;-43
2021/09/27 01:02:43;;;;;;;17.83;11.73;;;;;;;16.00;86.40;101404.44;5035258;28;20457;-43
2021/09/27 01:05:12;;;;;;;19.65;11.80;;;;;;;16.04;86.21;101404.03;5034443;28;20032;-43
2021/09/27 01:08:17;;;;;;;19.55;12.27;;;;;;;16.01;86.33;101397.41;5035683;28;20061;-43
2021/09/27 01:11:18;;;;;;;17.55;11.32;;;;;;;15.95;86.62;101387.81;5021835;28;20045;-43
2021/09/27 01:13:44;;;;;;;15.52;11.45;;;;;;;15.93;86.67;101388.03;5036185;28;20033;-43
2021/09/27 01:16:20;;;;;;;18.73;11.87;;;;;;;15.91;86.68;101394.44;5035765;28;20032;-43
2021/09/27 01:19:01;;;;;;;23.70;12.32;;;;;;;15.87;86.70;101388.06;5035884;28;20276;-43
2021/09/27 01:21:36;;;;;;;17.83;11.95;;;;;;;15.78;86.97;101385.69;5036109;28;20021;-43
2021/09/27 01:24:45;;;;;;;22.45;12.52;;;;;;;15.80;87.09;101385.50;5035757;28;20044;-43
2021/09/27 01:27:41;;;;;;;21.10;12.23;;;;;;;15.83;87.08;101381.66;5036029;28;20422;-43
2021/09/27 01:30:14;;;;;;;23.85;12.23;;;;;;;15.83;87.00;101371.25;5035365;28;20024;-43
2021/09/27 01:32:57;;;;;;;18.45;12.32;;;;;;;15.85;86.72;101382.25;5033897;28;20068;-43
2021/09/27 01:35:41;;;;;;;17.50;12.15;;;;;;;15.78;87.09;101382.28;5035272;28;20072;-43
2021/09/27 01:38:35;;;;;;;21.00;12.48;;;;;;;15.69;87.29;101386.91;5035777;28;20032;-43
2021/09/27 01:41:45;;;;;;;19.33;12.15;;;;;;;15.71;87.23;101381.50;5035107;28;20029;-43
2021/09/27 01:44:26;;;;;;;24.45;12.10;;;;;;;15.77;86.89;101388.50;5035220;28;20075;-43
2021/09/27 01:46:59;;;;;;;22.27;12.35;;;;;;;15.59;87.59;101396.94;5035611;28;20052;-43
2021/09/27 01:49:38;;;;;;;20.15;12.52;;;;;;;15.59;87.77;101383.91;5035370;28;20040;-44
2021/09/27 01:52:12;;;;;;;22.20;12.73;;;;;;;15.52;88.01;101383.94;5033686;28;20124;-44
2021/09/27 01:54:44;;;;;;;20.75;12.88;;;;;;;15.45;88.78;101379.72;5035138;28;20082;-43
2021/09/27 01:57:26;;;;;;;20.92;13.50;;;;;;;15.46;88.28;101381.34;5035697;28;20026;-44
2021/09/27 02:00:06;;;;;;;21.38;13.05;;;;;;;15.45;88.23;101375.34;5035263;28;20033;-43
2021/09/27 02:02:56;;;;;;;18.02;12.48;;;;;;;15.48;88.08;101380.16;5035038;28;20057;-43
2021/09/27 02:05:40;;;;;;;22.80;13.32;;;;;;;15.40;88.60;101377.75;5033383;28;20025;-43
2021/09/27 02:08:29;;;;;;;22.08;14.02;;;;;;;15.36;88.75;101381.75;5034327;28;20040;-43
2021/09/27 02:11:06;;;;;;;21.50;13.57;;;;;;;15.37;88.50;101382.59;5035090;28;20030;-43
2021/09/27 02:13:49;;;;;;;19.80;13.77;;;;;;;15.30;89.14;101374.75;5034569;28;20053;-43
2021/09/27 02:16:31;;;;;;;23.38;13.48;;;;;;;15.34;88.76;101379.38;5033601;28;20033;-43
2021/09/27 02:19:35;;;;;;;22.08;14.20;;;;;;;15.33;88.82;101374.34;5034728;28;20025;-43
2021/09/27 02:22:21;;;;;;;19.67;13.25;;;;;;;15.31;88.76;101374.56;5033949;28;20374;-43
2021/09/27 02:25:05;;;;;;;19.73;13.10;;;;;;;15.27;89.15;101370.75;5034919;28;20529;-43
2021/09/27 02:27:31;;;;;;;20.33;13.20;;;;;;;15.36;88.58;101381.75;5034370;28;20036;-43
2021/09/27 02:29:57;;;;;;;24.52;13.82;;;;;;;15.33;88.57;101380.38;5033001;28;20567;-43
2021/09/27 02:32:41;;;;;;;24.10;13.40;;;;;;;15.28;89.08;101380.19;5033984;28;20025;-43
2021/09/27 02:35:16;;;;;;;21.65;13.65;;;;;;;15.32;88.75;101370.16;5034040;28;20030;-43
2021/09/27 02:38:11;;;;;;;21.60;13.98;;;;;;;15.25;89.26;101372.00;5034340;28;20051;-43
2021/09/27 02:40:53;;;;;;;19.95;13.80;;;;;;;15.22;89.32;101373.19;5034303;28;20033;-44
2021/09/27 02:43:19;;;;;;;24.45;14.27;;;;;;;15.14;89.64;101370.00;5034448;28;20167;-43
2021/09/27 02:45:46;;;;;;;25.48;14.02;;;;;;;15.18;89.53;101371.19;5033878;28;20025;-42
2021/09/27 02:48:18;;;;;;;25.38;15.02;;;;;;;15.19;89.45;101371.00;5034076;28;20022;-42
2021/09/27 02:50:49;;;;;;;22.60;13.98;;;;;;;15.16;89.67;101363.56;5034141;28;20055;-43
2021/09/27 02:53:16;;;;;;;28.63;14.57;;;;;;;15.14;89.76;101357.78;5033945;28;20110;-50
2021/09/27 02:56:07;;;;;;;25.20;15.25;;;;;;;15.14;90.02;101367.41;5034220;28;20033;-42
2021/09/27 02:58:45;;;;;;;25.33;14.27;;;;;;;15.07;89.91;101367.38;5034445;28;20380;-44
2021/09/27 03:01:20;;;;;;;23.85;14.20;;;;;;;15.17;89.45;101372.19;5033921;28;20025;-43
2021/09/27 03:04:10;;;;;;;24.35;13.30;;;;;;;15.19;89.32;101371.00;5034246;28;20074;-44
2021/09/27 03:06:41;;;;;;;23.45;14.15;;;;;;;15.15;89.63;101369.00;5033696;28;20514;-43
2021/09/27 03:09:23;;;;;;;24.73;14.35;;;;;;;15.12;89.60;101357.19;5033858;28;20116;-44
2021/09/27 03:12:25;;;;;;;24.40;14.65;;;;;;;15.09;89.46;101360.97;5033852;28;20039;-43
2021/09/27 03:14:56;;;;;;;23.02;14.20;;;;;;;15.08;89.71;101354.19;5033966;28;20475;-44
2021/09/27 03:17:33;;;;;;;24.17;15.10;;;;;;;15.00;89.73;101364.81;5033656;28;20029;-43
2021/09/27 03:20:20;;;;;;;24.80;15.20;;;;;;;15.04;89.74;101366.00;5032867;28;20061;-44
2021/09/27 03:22:55;;;;;;;23.20;15.63;;;;;;;15.02;89.88;101365.41;5033684;28;20025;-43
2021/09/27 03:25:40;;;;;;;24.17;14.60;;;;;;;15.02;89.95;101359.41;5033751;28;20088;-42
2021/09/27 03:28:43;;;;;;;22.90;15.10;;;;;;;15.13;89.67;101363.97;5033860;28;20075;-42
2021/09/27 03:31:52;;;;;;;24.08;15.50;;;;;;;15.08;89.85;101362.00;5033482;28;20075;-42
2021/09/27 03:34:36;;;;;;;26.23;16.05;;;;;;;15.06;89.62;101360.59;4991807;28;20058;-42
2021/09/27 03:37:09;;;;;;;28.38;16.48;;;;;;;15.08;89.82;101353.41;5029872;28;20410;-42
2021/09/27 03:39:51;;;;;;;25.50;15.98;;;;;;;15.12;89.74;101357.19;5033418;28;20477;-42
2021/09/27 03:42:27;;;;;;;28.38;15.75;;;;;;;15.12;89.75;101354.56;5031969;28;20115;-43
2021/09/27 03:44:58;;;;;;;26.23;16.38;;;;;;;15.07;89.97;101347.38;5033136;28;20099;-42
2021/09/27 03:47:42;;;;;;;25.73;16.48;;;;;;;15.14;89.64;101349.19;5033097;28;20033;-42
2021/09/27 03:50:24;;;;;;;28.15;16.58;;;;;;;15.17;89.57;101351.38;5033342;28;20030;-42
2021/09/27 03:52:55;;;;;;;24.27;15.93;;;;;;;15.24;89.42;101346.94;5033448;28;20052;-42
2021/09/27 03:55:28;;;;;;;27.17;16.92;;;;;;;15.17;89.58;101341.75;5033052;28;20029;-42
2021/09/27 03:57:53;;;;;;;;;;;;;;;15.27;89.38;101346.53;5033474;28;20029;-42
2021/09/27 04:00:24;;;;;;;28.63;16.67;;;;;;;15.30;89.06;101341.72;5032993;28;19916;-44
2021/09/27 04:03:01;;;;;;;28.67;16.38;;;;;;;15.31;89.08;101343.31;5033324;28;20021;-43
2021/09/27 04:05:50;;;;;;;26.33;16.67;;;;;;;15.19;89.52;101338.94;5033269;28;20022;-43
2021/09/27 04:08:42;;;;;;;30.40;17.70;;;;;;;15.07;90.05;101334.34;5033141;28;20071;-43
2021/09/27 04:11:26;;;;;;;26.23;17.50;;;;;;;15.08;90.14;101333.38;5033370;28;20018;-43
2021/09/27 04:14:21;;;;;;;28.77;17.98;;;;;;;15.09;89.87;101341.97;5031455;28;20366;-42
2021/09/27 04:17:04;;;;;;;32.25;17.05;;;;;;;15.02;90.32;101338.59;5033069;28;20029;-43
2021/09/27 04:19:46;;;;;;;31.42;17.75;;;;;;;14.96;91.03;101339.38;5032759;28;20384;-42
2021/09/27 04:22:33;;;;;;;29.77;17.88;;;;;;;14.96;90.62;101334.16;5032701;28;20476;-44
2021/09/27 04:25:26;;;;;;;32.95;19.27;;;;;;;15.00;90.49;101337.97;5032699;28;20380;-43
2021/09/27 04:28:02;;;;;;;30.07;18.03;;;;;;;14.94;90.63;101328.38;5032646;28;20032;-42
2021/09/27 04:31:13;;;;;;;30.13;17.38;;;;;;;14.93;90.58;101330.16;5033256;28;20091;-44
2021/09/27 04:34:10;;;;;;;33.90;17.85;;;;;;;14.88;90.90;101332.59;5031827;28;20057;-42
2021/09/27 04:36:41;;;;;;;30.42;18.48;;;;;;;14.85;90.92;101328.59;5036864;28;20029;-45
2021/09/27 04:39:10;;;;;;;34.83;18.50;;;;;;;14.92;90.65;101332.97;5036721;28;20105;-43
2021/09/27 04:42:14;;;;;;;32.15;18.65;;;;;;;14.79;91.14;101334.59;5036390;28;20025;-43
2021/09/27 04:45:17;;;;;;;33.72;19.13;;;;;;;14.79;91.07;101326.78;5023785;28;20029;-43
2021/09/27 04:48:13;;;;;;;31.75;18.90;;;;;;;14.79;91.19;101333.81;5036430;28;20029;-42
2021/09/27 04:51:03;;;;;;;39.00;19.83;;;;;;;14.69;91.57;101331.59;5036344;28;20456;-42
2021/09/27 04:53:37;;;;;;;34.83;19.98;;;;;;;14.68;91.91;101319.59;5035964;28;20452;-43
2021/09/27 04:56:21;;;;;;;38.72;20.38;;;;;;;14.65;91.94;101315.59;5036747;28;20025;-43
2021/09/27 04:59:23;;;;;;;38.25;21.10;;;;;;;14.69;91.68;101312.59;5035962;28;20104;-43
2021/09/27 05:02:23;;;;;;;37.78;21.23;;;;;;;14.65;91.90;101315.59;5035782;28;20100;-43
2021/09/27 05:05:29;;;;;;;39.97;20.70;;;;;;;14.70;91.73;101319.38;4998840;28;20362;-43
2021/09/27 05:08:15;;;;;;;39.97;21.08;;;;;;;14.78;91.43;101317.38;5036339;28;20056;-43
2021/09/27 05:10:43;;;;;;;40.83;21.33;;;;;;;14.76;91.53;101311.59;5028430;28;20033;-44
2021/09/27 05:13:18;;;;;;;43.95;22.05;;;;;;;14.75;91.78;101307.38;5034566;28;20033;-43
2021/09/27 05:15:58;;;;;;;37.42;21.50;;;;;;;14.82;91.40;101308.19;5034377;28;20022;-43
2021/09/27 05:18:43;;;;;;;37.05;20.40;;;;;;;14.81;91.01;101306.56;5035960;28;20384;-43
2021/09/27 05:21:33;;;;;;;34.10;20.48;;;;;;;14.85;91.34;101299.16;5035534;28;20484;-44
2021/09/27 05:24:36;;;;;;;40.83;20.70;;;;;;;14.83;91.53;101296.75;5036031;28;20037;-43
2021/09/27 05:27:26;;;;;;;41.72;21.90;;;;;;;14.76;91.62;101293.38;5035622;28;20358;-43
2021/09/27 05:30:03;;;;;;;38.10;22.38;;;;;;;14.81;91.72;101287.56;5035636;28;20116;-43
2021/09/27 05:32:50;;;;;;;41.03;22.65;;;;;;;14.75;92.08;101289.16;5035770;28;20457;-43
2021/09/27 05:35:36;;;;;;;42.60;22.50;;;;;;;14.88;91.41;101290.97;5033809;28;20128;-43
2021/09/27 05:38:18;;;;;;;41.95;23.00;;;;;;;14.91;91.37;101289.75;5035442;28;20083;-43
2021/09/27 05:40:49;;;;;;;44.22;23.13;;;;;;;14.91;91.39;101290.56;5034654;28;20033;-43
2021/09/27 05:43:30;;;;;;;40.60;22.75;;;;;;;14.90;91.62;101288.94;5035229;28;20096;-43
2021/09/27 05:46:25;;;;;;;47.88;23.77;;;;;;;14.92;91.69;101292.13;5035282;28;20028;-44
2021/09/27 05:49:05;;;;;;;45.90;23.90;;;;;;;14.91;91.83;101293.16;5033934;28;20057;-43
2021/09/27 05:51:44;;;;;;;41.45;23.10;;;;;;;15.00;91.50;101294.53;5035306;28;20028;-43
2021/09/27 05:54:40;;;;;;;41.00;24.05;;;;;;;15.00;91.83;101293.75;5035119;28;20021;-43
2021/09/27 05:57:21;;;;;;;41.92;24.10;;;;;;;15.00;91.82;101291.94;5035319;28;20025;-43
2021/09/27 06:00:04;;;;;;;41.67;23.35;;;;;;;15.09;91.68;101297.72;5034969;28;20116;-43
2021/09/27 06:02:46;;;;;;;42.20;23.00;;;;;;;15.20;91.13;101291.88;5034984;28;20423;-44
2021/09/27 06:09:13;;;;;;;46.20;21.65;;;;;;;15.22;91.24;101287.28;5034722;28;20039;-44
2021/09/27 06:11:59;;;;;;;39.95;21.75;;;;;;;15.17;91.31;101289.69;5029088;28;20048;-43
2021/09/27 06:14:26;;;;;;;38.20;21.77;;;;;;;15.25;91.23;101293.88;5034108;28;20021;-44
2021/09/27 06:17:11;;;;;;;37.90;21.20;;;;;;;15.31;90.87;101293.84;5034439;28;20025;-43
2021/09/27 06:19:44;;;;;;;35.63;20.63;;;;;;;15.33;90.98;101299.66;5034392;28;20533;-44
2021/09/27 06:22:38;;;;;;;32.70;19.58;;;;;;;15.48;90.22;101288.19;5034493;28;20056;-42
2021/09/27 06:25:34;;;;;;;32.90;19.75;;;;;;;15.67;89.35;101289.88;5034640;28;20403;-43
2021/09/27 06:28:27;;;;;;;34.80;20.20;;;;;;;15.78;88.95;101286.66;5034704;28;20414;-43
2021/09/27 06:31:00;;;;;;;31.38;18.85;;;;;;;16.00;87.66;101279.31;5034833;28;20045;-43
2021/09/27 06:33:48;;;;;;;30.90;19.00;;;;;;;16.33;86.66;101278.28;5034001;28;20055;-43
2021/09/27 06:36:19;;;;;;;27.98;17.80;;;;;;;16.33;86.13;101269.66;5034094;28;20025;-44
2021/09/27 06:38:44;;;;;;;28.55;17.00;;;;;;;16.50;85.74;101269.94;5033918;28;20031;-43
2021/09/27 06:41:17;;;;;;;31.92;17.70;;;;;;;16.76;84.64;101266.28;5034726;28;20025;-44
2021/09/27 06:46:45;;;;;;;26.25;16.50;;;;;;;16.45;85.86;101262.72;5033814;28;19931;-43
2021/09/27 06:49:11;;;;;;;27.23;16.20;;;;;;;16.58;85.39;101256.63;5033921;28;20030;-47
2021/09/27 06:51:41;;;;;;;25.63;15.73;;;;;;;16.51;85.48;101269.69;5033746;28;20033;-43
2021/09/27 06:54:08;;;;;;;24.17;15.13;;;;;;;16.56;85.09;101272.47;5033724;28;20468;-43
2021/09/27 06:56:33;;;;;;;23.85;14.73;;;;;;;16.83;84.50;101267.84;5033551;28;20032;-43
2021/09/27 06:58:59;;;;;;;26.15;14.48;;;;;;;16.93;83.67;101269.94;5033727;28;20026;-43
2021/09/27 07:01:25;;;;;;;22.13;14.60;;;;;;;17.09;82.99;101260.72;5033417;28;20480;-43
2021/09/27 07:03:50;;;;;;;23.40;13.85;;;;;;;17.53;81.21;101274.47;5033473;28;20087;-44
2021/09/27 07:06:15;;;;;;;21.38;13.68;;;;;;;17.75;80.54;101267.75;5033348;28;20518;-43
2021/09/27 07:08:40;;;;;;;21.63;13.45;;;;;;;17.27;81.75;101262.53;5033681;28;20120;-43
2021/09/27 07:11:06;;;;;;;20.85;13.10;;;;;;;17.02;82.46;101266.03;5033633;28;20021;-43
2021/09/27 07:13:31;;;;;;;21.35;12.65;;;;;;;16.85;83.35;101260.56;5033673;28;20045;-44
2021/09/27 07:15:56;;;;;;;22.30;13.40;;;;;;;16.66;84.22;101259.75;5033190;28;20025;-43
2021/09/27 07:18:22;;;;;;;19.70;13.10;;;;;;;16.54;84.32;101248.41;5033366;28;20052;-43
2021/09/27 07:20:48;;;;;;;23.88;13.02;;;;;;;16.61;83.89;101251.75;5033364;28;20036;-43
2021/09/27 07:23:14;;;;;;;22.80;12.57;;;;;;;16.74;83.84;101234.38;5033510;28;20484;-44
2021/09/27 07:25:39;;;;;;;19.15;12.10;;;;;;;16.94;83.24;101237.59;5033269;28;20021;-43
2021/09/27 07:28:04;;;;;;;19.08;12.27;;;;;;;16.93;82.95;101228.19;5033250;28;20029;-43
2021/09/27 07:30:31;;;;;;;18.35;11.68;;;;;;;17.06;81.91;101237.66;5033382;28;20040;-44
2021/09/27 07:32:58;;;;;;;18.70;12.88;;;;;;;17.14;82.27;101234.75;5032781;28;20496;-43
2021/09/27 07:35:28;;;;;;;20.33;12.02;;;;;;;17.51;80.44;101226.84;5031912;28;20029;-43
2021/09/27 07:37:53;;;;;;;20.08;11.05;;;;;;;17.70;79.42;101214.53;5032924;28;20133;-43
2021/09/27 07:40:22;;;;;;;17.45;11.98;;;;;;;17.83;79.33;101211.75;5033061;28;20109;-43
2021/09/27 07:42:48;;;;;;;23.08;11.52;;;;;;;18.29;77.31;101218.06;5032992;28;20063;-43
2021/09/27 07:45:17;;;;;;;19.05;10.90;;;;;;;18.62;75.58;101227.16;5033215;28;20056;-43
2021/09/27 07:47:43;;;;;;;15.48;10.50;;;;;;;18.59;75.65;101228.41;5033245;28;20036;-44
2021/09/27 07:50:09;;;;;;;18.70;10.05;;;;;;;19.64;72.42;101216.03;5033564;28;20029;-43
2021/09/27 07:52:35;;;;;;;20.30;9.88;;;;;;;19.21;73.04;101214.75;5033216;28;20112;-44
2021/09/27 07:55:01;;;;;;;17.33;10.35;;;;;;;18.10;77.34;101225.22;5033196;28;20164;-42
2021/09/27 07:57:26;;;;;;;18.17;10.82;;;;;;;17.98;78.26;101222.59;5033075;28;20475;-44
2021/09/27 07:59:53;;;;;;;15.13;10.18;;;;;;;18.22;78.06;101218.19;5033184;28;20029;-43
2021/09/27 08:02:20;;;;;;;16.98;10.50;;;;;;;18.04;78.14;101213.84;5033205;28;20021;-43
2021/09/27 08:04:45;;;;;;;16.10;10.00;;;;;;;18.53;76.38;101207.56;5033841;28;20017;-44
2021/09/27 08:07:11;;;;;;;17.83;10.05;;;;;;;18.90;74.89;101214.16;5036812;28;20104;-44
2021/09/27 08:09:37;;;;;;;15.73;10.20;;;;;;;18.36;77.06;101213.53;5036905;28;20026;-43
2021/09/27 08:12:02;;;;;;;22.77;10.82;;;;;;;18.15;78.15;101219.31;5036808;28;20060;-43
2021/09/27 08:14:27;;;;;;;15.88;10.95;;;;;;;18.02;78.50;101207.25;5036736;28;20104;-42
2021/09/27 08:16:53;;;;;;;16.20;10.57;;;;;;;18.57;76.66;101216.56;5037135;28;20040;-43
2021/09/27 08:19:23;;;;;;;16.83;10.52;;;;;;;18.72;76.33;101219.50;5036737;28;20059;-43
2021/09/27 08:21:49;;;;;;;16.35;10.77;;;;;;;19.45;73.68;101209.41;5036891;28;20076;-43
2021/09/27 08:24:14;;;;;;;16.02;10.50;;;;;;;19.57;73.06;101223.25;5036618;28;20057;-43
2021/09/27 08:26:40;;;;;;;16.83;10.45;;;;;;;18.71;76.22;101226.56;5036494;28;20385;-43
2021/09/27 08:29:06;;;;;;;19.35;10.45;;;;;;;18.93;75.63;101208.47;5036360;28;20078;-43
2021/09/27 08:31:32;;;;;;;15.57;10.55;;;;;;;19.34;74.52;101206.63;5036443;28;20021;-43
2021/09/27 08:33:57;;;;;;;13.65;9.98;;;;;;;19.70;72.99;101191.50;5036127;28;20404;-43
2021/09/27 08:36:24;;;;;;;15.68;10.07;;;;;;;21.44;67.10;101188.53;5036657;28;20133;-43
2021/09/27 08:38:50;;;;;;;12.35;9.68;;;;;;;21.10;67.69;101183.44;5036877;28;20025;-43
2021/09/27 08:41:41;;;;;;;12.88;9.45;;;;;;;20.79;68.55;101187.56;5036197;28;20032;-43
2021/09/27 08:44:16;;;;;;;13.00;9.18;;;;;;;19.24;74.68;101184.66;5036499;28;20078;-43
2021/09/27 08:46:54;;;;;;;14.23;9.40;;;;;;;18.87;76.22;101195.50;5034902;28;20139;-44
2021/09/27 08:49:34;;;;;;;12.90;10.00;;;;;;;18.76;76.85;101181.41;5036414;28;20043;-44
2021/09/27 08:52:01;;;;;;;14.10;10.23;;;;;;;18.29;78.95;101191.09;5036045;28;20029;-43
2021/09/27 08:54:29;;;;;;;15.85;10.68;;;;;;;18.18;79.35;101175.19;5036004;28;20021;-48
2021/09/27 08:56:54;;;;;;;18.30;11.02;;;;;;;18.24;79.35;101176.91;5035889;28;20047;-44
2021/09/27 08:59:42;;;;;;;15.90;10.27;;;;;;;18.21;79.30;101166.06;5035944;28;20340;-44
2021/09/27 09:02:26;;;;;;;14.25;10.68;;;;;;;18.16;79.51;101174.63;5036124;28;20345;-43
2021/09/27 09:05:17;;;;;;;18.80;10.25;;;;;;;18.24;79.61;101181.31;5036025;28;20036;-44
2021/09/27 09:07:48;;;;;;;13.43;10.45;;;;;;;18.34;79.02;101183.38;5036377;28;20428;-43
2021/09/27 09:10:21;;;;;;;18.27;10.32;;;;;;;18.40;78.92;101175.41;5035742;28;20391;-44
2021/09/27 09:12:54;;;;;;;15.93;10.02;;;;;;;18.67;78.17;101180.13;5036318;28;20028;-43
2021/09/27 09:15:26;;;;;;;15.35;9.90;;;;;;;18.53;78.50;101170.94;5035983;28;20129;-43
2021/09/27 09:17:58;;;;;;;15.70;10.30;;;;;;;19.33;75.17;101178.00;5034376;28;20041;-42
2021/09/27 09:20:42;;;;;;;13.90;10.38;;;;;;;19.11;76.02;101167.41;5035582;28;20067;-43
2021/09/27 09:23:08;;;;;;;14.52;9.77;;;;;;;18.82;77.16;101170.00;5034297;28;20036;-43
2021/09/27 09:25:39;;;;;;;16.42;10.48;;;;;;;18.99;76.65;101159.59;5035448;28;20021;-43
2021/09/27 09:28:08;;;;;;;14.65;9.70;;;;;;;19.24;75.89;101163.72;5035783;28;20032;-47
2021/09/27 09:30:44;;;;;;;13.20;9.13;;;;;;;19.13;76.34;101166.16;5035369;28;20174;-48
2021/09/27 09:33:09;;;;;;;15.35;9.07;;;;;;;19.19;76.18;101180.16;5035653;28;20095;-43
2021/09/27 09:35:34;;;;;;;13.85;9.40;;;;;;;18.99;76.05;101170.09;5035807;28;20026;-43
2021/09/27 09:38:00;;;;;;;13.80;9.00;;;;;;;19.06;76.33;101168.09;5035526;28;20026;-43
2021/09/27 09:40:28;;;;;;;14.10;8.47;;;;;;;19.45;74.40;101173.53;5035185;28;20029;-43
2021/09/27 09:43:04;;;;;;;17.27;8.55;;;;;;;19.35;74.50;101163.66;5035678;28;20276;-43
2021/09/27 09:45:36;;;;;;;16.63;8.10;;;;;;;19.47;74.57;101165.41;5035436;28;20014;-44
2021/09/27 09:48:22;;;;;;;12.98;8.20;;;;;;;19.29;74.99;101166.41;5035667;28;20030;-44
2021/09/27 09:50:51;;;;;;;13.65;8.13;;;;;;;19.01;75.65;101141.03;5035026;28;20026;-43
2021/09/27 09:53:25;;;;;;;15.13;7.70;;;;;;;19.16;75.03;101136.06;5034913;28;20107;-43
2021/09/27 09:56:00;;;;;;;10.77;7.05;;;;;;;19.33;73.95;101134.28;5035120;28;20029;-43
2021/09/27 09:58:40;;;;;;;11.75;7.43;;;;;;;19.17;74.67;101145.53;5035094;28;20017;-43
2021/09/27 10:01:14;;;;;;;10.98;7.03;;;;;;;19.00;75.67;101152.53;5034889;28;20029;-43
2021/09/27 10:03:43;;;;;;;11.55;6.60;;;;;;;19.31;74.62;101146.03;5034728;28;20029;-43
2021/09/27 10:06:27;;;;;;;10.77;6.85;;;;;;;19.05;74.32;101142.16;5034698;28;20040;-43
2021/09/27 10:08:57;;;;;;;12.27;5.97;;;;;;;19.22;74.01;101136.94;5035258;28;20435;-44
2021/09/27 10:11:50;;;;;;;17.08;6.28;;;;;;;19.03;74.36;101136.34;5033664;28;20040;-43
2021/09/27 10:14:17;;;;;;;11.60;5.82;;;;;;;19.04;74.27;101130.88;5034584;28;20029;-43
2021/09/27 10:17:11;;;;;;;9.85;6.32;;;;;;;19.17;73.62;101137.66;5034428;28;20029;-44
2021/09/27 10:19:47;;;;;;;10.15;6.13;;;;;;;19.43;72.89;101136.28;5016686;28;20045;-44
2021/09/27 10:22:23;;;;;;;8.23;5.82;;;;;;;19.60;71.79;101126.59;5034317;28;20049;-44
2021/09/27 10:24:52;;;;;;;11.43;5.82;;;;;;;20.14;70.86;101120.84;5034204;28;20048;-43
2021/09/27 10:27:30;;;;;;;13.95;5.45;;;;;;;19.99;70.15;101126.66;5034212;28;20095;-49
2021/09/27 10:29:59;;;;;;;10.30;5.35;;;;;;;19.88;69.93;101114.47;5034596;28;20578;-43
2021/09/27 10:32:34;;;;;;;10.52;5.20;;;;;;;20.21;69.11;101113.56;5033024;28;20412;-43
2021/09/27 10:35:08;;;;;;;12.93;5.22;;;;;;;19.86;70.07;101121.75;5034570;28;20068;-43
2021/09/27 10:37:37;;;;;;;8.40;5.60;;;;;;;19.95;69.23;101104.56;5033907;28;20117;-44
2021/09/27 10:40:04;;;;;;;7.63;5.03;;;;;;;19.56;71.04;101119.41;5034408;28;20033;-47
2021/09/27 10:42:43;;;;;;;6.88;4.95;;;;;;;19.67;70.89;101125.66;5032513;28;20124;-44
2021/09/27 10:45:11;;;;;;;10.32;5.20;;;;;;;19.72;70.89;101110.00;5034281;28;20371;-43
2021/09/27 10:47:41;;;;;;;11.30;5.10;;;;;;;19.49;71.44;101127.44;5033645;28;20469;-44
2021/09/27 10:50:33;;;;;;;8.40;5.25;;;;;;;19.52;71.53;101115.69;5035113;28;20044;-43
2021/09/27 10:53:06;;;;;;;11.32;4.60;;;;;;;19.79;70.01;101103.56;5033574;28;20475;-44
2021/09/27 10:55:51;;;;;;;9.15;4.97;;;;;;;19.58;70.67;101118.16;5033910;28;20021;-44
2021/09/27 10:58:37;;;;;;;10.23;5.25;;;;;;;19.80;70.51;101097.28;5033561;28;20036;-44
2021/09/27 11:01:06;;;;;;;11.80;4.85;;;;;;;19.67;70.49;101097.59;5033834;28;20109;-44
2021/09/27 11:03:47;;;;;;;7.50;4.80;;;;;;;19.85;70.15;101099.16;5033657;28;20029;-43
2021/09/27 11:06:36;;;;;;;7.88;4.40;;;;;;;19.97;70.11;101102.50;5033852;28;20013;-43
2021/09/27 11:09:10;;;;;;;8.48;4.75;;;;;;;19.70;70.72;101109.44;5033709;28;20040;-43
2021/09/27 11:12:01;;;;;;;10.55;5.40;;;;;;;19.77;70.50;101096.97;5033831;28;20047;-43
2021/09/27 11:14:41;;;;;;;7.30;4.30;;;;;;;19.95;69.84;101088.06;5033659;28;20030;-43
2021/09/27 11:17:06;;;;;;;10.88;4.03;;;;;;;20.01;69.72;101081.84;5033747;28;20483;-43
2021/09/27 11:19:38;;;;;;;12.03;4.23;;;;;;;19.77;70.16;101079.41;5032143;28;20029;-43
2021/09/27 11:22:20;;;;;;;9.57;4.43;;;;;;;19.76;70.51;101085.69;5033862;28;20061;-43
2021/09/27 11:24:50;;;;;;;9.18;4.22;;;;;;;19.72;70.68;101081.97;5033763;28;20021;-43
2021/09/27 11:27:15;;;;;;;8.38;3.80;;;;;;;20.03;69.36;101080.56;5033211;28;20079;-43
2021/09/27 11:29:52;;;;;;;10.27;4.05;;;;;;;20.09;69.61;101078.78;5033284;28;20029;-43
2021/09/27 11:32:28;;;;;;;8.05;3.95;;;;;;;20.00;69.78;101077.63;5033145;28;20148;-43
2021/09/27 11:34:58;;;;;;;7.60;4.40;;;;;;;19.86;69.69;101084.25;5033540;28;20036;-43
2021/09/27 11:37:28;;;;;;;10.07;4.05;;;;;;;20.16;69.38;101078.59;5031937;28;20029;-43
2021/09/27 11:40:05;;;;;;;10.20;4.15;;;;;;;20.31;68.54;101080.63;5032394;28;20040;-43
2021/09/27 11:42:54;;;;;;;7.05;3.90;;;;;;;20.25;68.67;101091.09;5033152;28;20104;-43
2021/09/27 11:45:39;;;;;;;6.65;3.92;;;;;;;20.44;67.98;101080.25;5013809;28;20164;-43
2021/09/27 11:48:11;;;;;;;6.65;4.32;;;;;;;20.47;67.92;101083.19;5033372;28;20468;-42
2021/09/27 11:50:50;;;;;;;5.05;3.63;;;;;;;21.00;66.46;101087.94;5032021;28;20487;-44
2021/09/27 11:53:23;;;;;;;11.35;4.05;;;;;;;20.92;66.11;101090.00;5033241;28;20029;-44
2021/09/27 11:56:06;;;;;;;8.43;3.90;;;;;;;21.20;65.57;101085.50;5031971;28;20029;-43
2021/09/27 11:58:53;;;;;;;6.75;4.13;;;;;;;21.26;64.80;101081.91;5033384;28;20468;-43
2021/09/27 12:01:46;;;;;;;8.65;4.00;;;;;;;21.19;65.34;101091.81;5033276;28;20022;-48